Time;durP1;ratioP1;P1;durP2;ratioP2;P2;SDS_P1;SDS_P2;PMS_P1;PMS_P2;Temp;Humidity;BMP_temperature;BMP_pressure;BME280_temperature;BME280_humidity;BME280_pressure;Samples;Min_cycle;Max_cycle;Signal;HPM_P1;HPM_P2
2021/12/10 00:01:17;;;;;;;29.40;26.50;;;;;;;2.66;77.73;94022.09;5097010;28;20620;-71
2021/12/10 00:03:47;;;;;;;28.25;25.65;;;;;;;2.68;77.75;94033.44;5096991;28;20528;-71
2021/12/10 00:06:19;;;;;;;28.17;25.45;;;;;;;2.69;77.90;94026.91;5096753;28;20292;-71
2021/12/10 00:08:57;;;;;;;28.23;25.48;;;;;;;2.67;78.05;94026.41;5097224;28;20192;-70
2021/12/10 00:11:26;;;;;;;30.30;27.30;;;;;;;2.67;78.06;94014.72;5096648;28;20212;-71
2021/12/10 00:13:54;;;;;;;29.02;26.13;;;;;;;2.71;77.96;94007.50;5096930;28;20200;-70
2021/12/10 00:16:21;;;;;;;27.30;24.60;;;;;;;2.74;78.10;94006.84;5095855;28;20287;-69
2021/12/10 00:18:53;;;;;;;25.15;22.75;;;;;;;2.77;78.28;94011.63;5097370;28;20184;-70
2021/12/10 00:21:23;;;;;;;20.83;18.83;;;;;;;2.84;78.54;94012.72;5096971;28;20200;-70
2021/12/10 00:23:51;;;;;;;19.52;17.73;;;;;;;2.95;78.27;94017.78;5097306;28;20203;-71
2021/12/10 00:26:20;;;;;;;20.88;18.88;;;;;;;2.97;77.95;94012.78;5096943;28;20302;-71
2021/12/10 00:28:48;;;;;;;21.48;19.38;;;;;;;2.97;77.76;93989.06;5096918;28;20188;-70
2021/12/10 00:31:30;;;;;;;21.75;19.58;;;;;;;2.94;77.85;93986.22;5096445;28;20197;-70
2021/12/10 00:34:01;;;;;;;24.45;22.15;;;;;;;2.87;78.00;94006.63;5097062;28;20184;-70
2021/12/10 00:36:29;;;;;;;24.65;22.35;;;;;;;2.85;78.09;94005.34;5097143;28;20185;-70
2021/12/10 00:38:57;;;;;;;22.73;20.45;;;;;;;2.82;78.14;94006.00;5097057;28;20191;-70
2021/12/10 00:41:25;;;;;;;25.67;23.27;;;;;;;2.81;78.27;94002.47;5097028;28;20208;-70
2021/12/10 00:43:52;;;;;;;23.55;21.17;;;;;;;2.80;78.66;93987.28;5095826;28;20189;-70
2021/12/10 00:46:19;;;;;;;23.15;20.98;;;;;;;2.82;79.12;94001.34;5096013;28;20207;-70
2021/12/10 00:48:46;;;;;;;23.33;21.10;;;;;;;2.83;78.80;94011.13;5095611;28;20201;-70
2021/12/10 00:51:13;;;;;;;16.85;15.23;;;;;;;2.89;79.30;93998.09;5096830;28;20200;-70
2021/12/10 00:53:42;;;;;;;17.02;15.43;;;;;;;3.00;79.16;93991.13;5095764;28;20232;-70
2021/12/10 00:56:09;;;;;;;19.52;17.65;;;;;;;3.00;78.93;93974.78;5095903;28;20215;-70
2021/12/10 00:58:37;;;;;;;19.85;18.00;;;;;;;2.96;78.95;93983.97;5096780;28;20177;-71
2021/12/10 01:01:06;;;;;;;23.23;21.08;;;;;;;2.91;79.14;93989.63;5096570;28;20180;-70
2021/12/10 01:03:37;;;;;;;26.15;23.42;;;;;;;2.83;79.05;93980.34;5096671;28;20211;-70
2021/12/10 01:06:06;;;;;;;26.38;23.67;;;;;;;2.75;79.18;93984.72;5095840;28;20203;-70
2021/12/10 01:08:35;;;;;;;26.50;23.02;;;;;;;2.72;79.86;93990.03;5096040;28;20676;-70
2021/12/10 01:11:07;;;;;;;24.75;22.15;;;;;;;2.72;80.25;93990.03;5095535;28;20199;-70
2021/12/10 01:13:36;;;;;;;26.80;24.13;;;;;;;2.71;80.23;93991.97;5095422;28;20234;-70
2021/12/10 01:23:40;;;;;;;25.73;23.20;;;;;;;2.72;80.16;93995.47;5096073;28;20223;-70
2021/12/10 01:25:05;;;;;;;25.60;23.08;;;;;;;2.71;80.53;93989.22;5095812;28;20277;-70
2021/12/10 01:27:36;;;;;;;24.02;21.75;;;;;;;2.73;80.34;93991.66;5095185;28;20207;-70
2021/12/10 01:30:09;;;;;;;24.60;22.20;;;;;;;2.73;80.64;93984.28;5095742;28;20181;-70
2021/12/10 01:32:38;;;;;;;22.48;20.33;;;;;;;2.75;80.43;93968.38;5095694;28;20191;-70
2021/12/10 01:35:06;;;;;;;21.38;19.38;;;;;;;2.78;80.63;93956.03;5095676;28;20208;-70
2021/12/10 01:37:33;;;;;;;22.38;20.17;;;;;;;2.80;80.77;93960.03;5094708;28;20207;-70
2021/12/10 01:40:00;;;;;;;20.83;18.53;;;;;;;2.83;80.90;93945.78;5096146;28;20196;-69
2021/12/10 01:42:39;;;;;;;19.98;18.00;;;;;;;2.85;81.14;93948.16;5095841;28;20193;-69
2021/12/10 01:45:17;;;;;;;20.80;18.70;;;;;;;2.85;81.20;93942.69;5095684;28;20192;-70
2021/12/10 01:47:45;;;;;;;20.63;18.63;;;;;;;2.85;81.46;93946.22;5094904;28;20299;-70
2021/12/10 01:50:12;;;;;;;21.02;18.95;;;;;;;2.83;80.88;93940.31;5094684;28;20196;-69
2021/12/10 01:52:39;;;;;;;21.90;19.70;;;;;;;2.85;80.98;93946.22;5095790;28;20204;-69
2021/12/10 01:55:07;;;;;;;20.83;18.73;;;;;;;2.84;81.03;93946.56;5094880;28;20216;-70
2021/12/10 01:57:38;;;;;;;20.00;18.10;;;;;;;2.81;81.36;93947.22;5094439;28;20188;-70
2021/12/10 02:00:09;;;;;;;20.85;18.85;;;;;;;2.78;81.15;93939.69;5094674;28;20204;-69
2021/12/10 02:02:37;;;;;;;20.35;18.45;;;;;;;2.79;81.43;93938.56;5094587;28;20200;-69
2021/12/10 02:05:05;;;;;;;20.45;18.45;;;;;;;2.80;81.32;93940.19;5095016;28;20289;-69
2021/12/10 02:07:32;;;;;;;21.23;19.23;;;;;;;2.80;82.09;93934.75;5095600;28;20199;-69
2021/12/10 02:09:59;;;;;;;20.65;18.70;;;;;;;2.80;81.79;93935.53;5094575;28;20206;-69
2021/12/10 02:12:26;;;;;;;21.23;19.27;;;;;;;2.75;81.75;93935.72;5095236;28;20183;-70
2021/12/10 02:15:00;;;;;;;21.17;19.10;;;;;;;2.74;82.10;93939.56;5095270;28;20223;-70
2021/12/10 02:17:30;;;;;;;20.83;18.73;;;;;;;2.75;81.93;93918.56;5095361;28;20184;-70
2021/12/10 02:19:57;;;;;;;21.27;19.15;;;;;;;2.75;81.68;93911.19;5094314;28;20207;-70
2021/12/10 02:22:25;;;;;;;21.65;19.52;;;;;;;2.80;82.30;93893.88;5094754;28;20208;-70
2021/12/10 02:24:52;;;;;;;20.27;18.33;;;;;;;2.80;82.38;93896.63;5094286;28;20200;-70
2021/12/10 02:27:19;;;;;;;21.30;19.33;;;;;;;2.74;81.76;93887.84;5094215;28;20189;-70
2021/12/10 02:29:46;;;;;;;20.75;18.75;;;;;;;2.76;81.83;93884.75;5095184;28;20192;-70
2021/12/10 02:32:13;;;;;;;21.92;19.75;;;;;;;2.75;82.12;93892.13;5094941;28;20200;-70
2021/12/10 02:34:41;;;;;;;21.67;19.43;;;;;;;2.76;82.08;93907.38;5094939;28;20191;-70
2021/12/10 02:37:08;;;;;;;22.15;20.15;;;;;;;2.79;82.28;93908.63;5094481;28;20200;-70
2021/12/10 02:39:36;;;;;;;20.92;19.00;;;;;;;2.78;82.13;93896.94;5096026;28;20211;-70
2021/12/10 02:42:04;;;;;;;21.85;19.85;;;;;;;2.78;82.65;93899.66;5099279;28;20185;-70
2021/12/10 02:44:32;;;;;;;21.20;19.05;;;;;;;2.76;82.01;93917.44;5098274;28;20552;-70
2021/12/10 02:47:00;;;;;;;21.00;18.90;;;;;;;2.71;82.03;93936.72;5098189;28;20529;-70
2021/12/10 02:49:28;;;;;;;20.80;18.90;;;;;;;2.75;82.69;93935.72;5099429;28;20200;-71
2021/12/10 02:51:55;;;;;;;20.25;18.35;;;;;;;2.82;82.59;93932.47;5098849;28;20191;-70
2021/12/10 02:54:32;;;;;;;20.73;18.73;;;;;;;2.80;82.59;93930.09;5098892;28;20593;-70
2021/12/10 02:57:02;;;;;;;21.95;19.95;;;;;;;2.76;82.26;93933.78;5098556;28;20220;-69
2021/12/10 02:59:28;;;;;;;21.75;19.75;;;;;;;2.79;82.82;93933.13;5098451;28;20204;-70
2021/12/10 03:01:56;;;;;;;21.47;19.47;;;;;;;2.78;82.15;93936.97;5098871;28;20188;-69
2021/12/10 03:04:23;;;;;;;23.25;21.05;;;;;;;2.78;82.56;93940.50;5098878;28;20184;-70
2021/12/10 03:06:54;;;;;;;21.15;19.25;;;;;;;2.85;82.67;93931.81;5097566;28;20188;-70
2021/12/10 03:09:22;;;;;;;21.08;19.13;;;;;;;2.90;82.77;93928.88;5098197;28;20196;-70
2021/12/10 03:11:49;;;;;;;19.52;17.75;;;;;;;2.93;82.90;93921.97;5097862;28;20274;-69
2021/12/10 03:14:20;;;;;;;21.58;19.58;;;;;;;2.97;82.81;93923.69;5098372;28;20185;-69
2021/12/10 03:16:49;;;;;;;21.42;19.52;;;;;;;2.98;82.65;93922.59;5098470;28;20219;-69
2021/12/10 03:19:16;;;;;;;21.08;19.10;;;;;;;3.04;82.61;93917.72;5097359;28;20214;-69
2021/12/10 03:21:44;;;;;;;19.80;18.10;;;;;;;3.09;82.75;93926.50;5097723;28;20200;-69
2021/12/10 03:24:12;;;;;;;20.83;18.90;;;;;;;3.11;82.99;93918.75;5097740;28;20192;-69
2021/12/10 03:26:39;;;;;;;20.23;18.35;;;;;;;3.13;82.73;93911.06;5097459;28;20199;-69
2021/12/10 03:29:06;;;;;;;19.88;18.08;;;;;;;3.13;82.70;93911.06;5098446;28;20192;-69
2021/12/10 03:31:35;;;;;;;20.60;18.73;;;;;;;3.13;82.41;93926.63;5098197;28;20195;-69
2021/12/10 03:34:02;;;;;;;20.77;18.95;;;;;;;3.12;82.50;93917.66;5098631;28;20211;-69
2021/12/10 03:36:29;;;;;;;21.35;19.55;;;;;;;3.13;82.24;93911.06;5097669;28;20429;-69
2021/12/10 03:38:57;;;;;;;21.38;19.48;;;;;;;3.14;82.34;93909.13;5097946;28;20185;-69
2021/12/10 03:41:25;;;;;;;20.20;18.40;;;;;;;3.17;82.20;93910.41;5097239;28;20201;-69
2021/12/10 03:43:53;;;;;;;21.10;19.20;;;;;;;3.16;82.26;93922.41;5097311;28;20196;-69
2021/12/10 03:46:21;;;;;;;20.75;19.00;;;;;;;3.20;82.78;93920.63;5098134;28;20215;-69
2021/12/10 03:48:49;;;;;;;20.13;18.38;;;;;;;3.21;82.66;93938.56;5097190;28;20210;-68
2021/12/10 03:51:18;;;;;;;17.63;16.02;;;;;;;3.28;82.95;93931.47;5095498;28;20189;-69
2021/12/10 03:53:45;;;;;;;18.20;16.40;;;;;;;3.34;83.42;93937.47;5097830;28;20244;-69
2021/12/10 03:56:15;;;;;;;16.38;14.77;;;;;;;3.44;83.29;93937.06;5097271;28;20205;-69
2021/12/10 03:58:42;;;;;;;18.08;16.38;;;;;;;3.44;83.03;93926.16;5096595;28;20192;-69
2021/12/10 04:01:11;;;;;;;17.90;16.20;;;;;;;3.44;82.45;93937.06;5097037;28;20204;-68
2021/12/10 04:03:38;;;;;;;19.40;17.50;;;;;;;3.37;82.35;93931.38;5097473;28;20204;-69
2021/12/10 04:06:07;;;;;;;19.40;17.63;;;;;;;3.32;82.34;93935.09;5097473;28;20186;-69
2021/12/10 04:08:34;;;;;;;18.45;16.75;;;;;;;3.34;83.09;93924.66;5096744;28;20222;-70
2021/12/10 04:11:01;;;;;;;18.20;16.60;;;;;;;3.36;83.00;93913.44;5097250;28;20189;-70
2021/12/10 04:13:28;;;;;;;18.23;16.60;;;;;;;3.37;83.29;93925.91;5096908;28;20196;-70
2021/12/10 04:15:55;;;;;;;18.35;16.70;;;;;;;3.44;83.19;93925.38;5096875;28;20216;-70
2021/12/10 04:18:22;;;;;;;18.55;16.85;;;;;;;3.50;83.60;93932.22;5097389;28;20185;-68
2021/12/10 04:20:49;;;;;;;19.63;17.88;;;;;;;3.52;83.76;93935.38;5096455;28;20201;-67
2021/12/10 04:23:21;;;;;;;18.63;17.13;;;;;;;3.55;83.52;93940.19;5096818;28;20185;-66
2021/12/10 04:25:49;;;;;;;18.45;16.90;;;;;;;3.62;84.06;93945.88;5096533;28;20203;-70
2021/12/10 04:28:18;;;;;;;16.17;14.77;;;;;;;3.69;84.16;93937.16;5097278;28;20202;-69
2021/12/10 04:30:46;;;;;;;15.55;14.15;;;;;;;3.74;83.75;93942.38;5096234;28;20214;-70
2021/12/10 04:33:15;;;;;;;14.27;12.88;;;;;;;3.78;83.79;93943.31;5096234;28;20199;-67
2021/12/10 04:35:43;;;;;;;15.25;13.80;;;;;;;3.75;83.78;93936.59;5082657;28;20224;-67
2021/12/10 04:38:10;;;;;;;16.83;15.13;;;;;;;3.67;83.07;93942.13;5091837;28;20212;-71
2021/12/10 04:40:38;;;;;;;15.48;14.00;;;;;;;3.64;83.67;93940.09;5075876;28;20537;-70
2021/12/10 04:43:05;;;;;;;15.50;14.10;;;;;;;3.58;83.52;93944.97;5086443;28;20188;-69
2021/12/10 04:45:32;;;;;;;14.75;13.35;;;;;;;3.58;83.85;93944.97;5096160;28;20196;-70
2021/12/10 04:47:58;;;;;;;15.52;13.93;;;;;;;3.62;83.80;93938.50;5096732;28;20265;-70
2021/12/10 04:50:28;;;;;;;14.23;12.90;;;;;;;3.75;84.00;93933.88;5095871;28;20211;-69
2021/12/10 04:52:55;;;;;;;13.95;12.55;;;;;;;3.87;83.88;93935.84;5075276;28;20233;-69
2021/12/10 04:55:22;;;;;;;12.63;11.52;;;;;;;3.97;84.04;93940.84;5092597;28;20204;-69
2021/12/10 04:57:50;;;;;;;13.82;12.40;;;;;;;3.99;84.26;93944.03;5076549;28;20215;-69
2021/12/10 05:00:19;;;;;;;14.23;12.77;;;;;;;3.95;83.85;93948.56;5076178;28;20200;-70
2021/12/10 05:02:46;;;;;;;14.40;12.90;;;;;;;3.91;84.06;93952.31;5075070;28;20211;-70
2021/12/10 05:05:14;;;;;;;16.48;14.05;;;;;;;3.85;83.77;93946.31;5075538;28;20193;-69
2021/12/10 05:07:41;;;;;;;18.63;16.73;;;;;;;3.81;83.27;93939.91;5075070;28;20264;-69
2021/12/10 05:10:11;;;;;;;22.25;20.13;;;;;;;3.76;83.21;93949.09;5075610;28;20292;-69
2021/12/10 05:12:40;;;;;;;23.13;20.88;;;;;;;3.76;83.57;93946.38;5075717;28;20200;-69
2021/12/10 05:15:11;;;;;;;26.38;23.77;;;;;;;3.79;83.31;93950.38;5075385;28;20203;-69
2021/12/10 05:17:39;;;;;;;26.45;23.85;;;;;;;3.84;83.47;93947.41;5075203;28;20221;-69
2021/12/10 05:20:11;;;;;;;24.90;22.47;;;;;;;3.85;83.41;93947.09;5075808;28;20518;-69
2021/12/10 05:22:39;;;;;;;26.33;23.83;;;;;;;3.88;83.12;93947.53;5091086;28;20431;-69
2021/12/10 05:25:07;;;;;;;27.70;25.20;;;;;;;3.94;83.47;93935.28;5092141;28;20442;-69
2021/12/10 05:27:34;;;;;;;23.20;20.90;;;;;;;3.99;83.69;93943.22;5075994;28;20201;-70
2021/12/10 05:30:01;;;;;;;20.13;18.30;;;;;;;4.04;83.34;93954.75;5076145;28;20186;-70
2021/12/10 05:32:29;;;;;;;22.33;20.02;;;;;;;4.06;82.67;93955.19;5074996;28;20195;-70
2021/12/10 05:34:56;;;;;;;23.20;20.90;;;;;;;4.04;82.73;93953.94;5091865;28;20201;-70
2021/12/10 05:37:23;;;;;;;24.45;22.25;;;;;;;4.00;82.55;93942.13;5075586;28;20209;-70
2021/12/10 05:39:50;;;;;;;20.38;18.48;;;;;;;3.96;82.59;93931.09;5074443;28;20532;-70
2021/12/10 05:42:16;;;;;;;18.70;17.00;;;;;;;3.99;82.87;93935.06;5074834;28;20236;-70
2021/12/10 05:44:43;;;;;;;19.83;18.08;;;;;;;3.98;82.40;93933.47;5074646;28;20204;-70
2021/12/10 05:47:10;;;;;;;20.90;19.00;;;;;;;3.96;82.58;93927.53;5091554;28;20193;-70
2021/12/10 05:49:38;;;;;;;22.05;19.95;;;;;;;3.93;82.46;93920.84;5074583;28;20199;-69
2021/12/10 05:52:06;;;;;;;23.00;20.90;;;;;;;3.92;82.65;93926.63;5075441;28;20201;-69
2021/12/10 05:54:33;;;;;;;25.73;23.40;;;;;;;3.95;82.95;93928.69;5075635;28;20250;-69
2021/12/10 05:57:00;;;;;;;26.20;23.73;;;;;;;3.98;82.71;93933.47;5075215;28;20299;-70
2021/12/10 05:59:27;;;;;;;27.20;24.55;;;;;;;3.99;82.81;93922.19;5075579;28;20192;-70
2021/12/10 06:01:54;;;;;;;25.83;23.23;;;;;;;4.01;82.58;93939.03;5074701;28;20193;-70
2021/12/10 06:04:26;;;;;;;25.23;22.80;;;;;;;4.02;83.00;93912.56;5075366;28;20185;-70
2021/12/10 06:06:55;;;;;;;26.83;24.15;;;;;;;4.04;82.47;93916.53;5074238;28;20197;-70
2021/12/10 06:09:22;;;;;;;34.15;30.88;;;;;;;4.07;82.74;93951.34;5075898;28;20205;-70
2021/12/10 06:11:49;;;;;;;27.73;25.00;;;;;;;4.08;83.09;93905.75;5091715;28;20193;-70
2021/12/10 06:14:16;;;;;;;27.45;24.83;;;;;;;4.09;83.41;93929.16;5090469;28;20205;-70
2021/12/10 06:16:43;;;;;;;28.85;26.00;;;;;;;4.08;83.32;93931.09;5075073;28;20205;-70
2021/12/10 06:19:10;;;;;;;25.98;23.48;;;;;;;4.14;83.42;93939.03;5075228;28;20200;-70
2021/12/10 06:21:38;;;;;;;23.35;21.08;;;;;;;4.16;83.31;93939.53;5075421;28;20181;-70
2021/12/10 06:24:09;;;;;;;20.95;18.95;;;;;;;4.20;83.90;93937.69;5091043;28;20197;-70
2021/12/10 06:26:36;;;;;;;20.40;18.60;;;;;;;4.19;83.15;93944.31;5091056;28;20204;-70
2021/12/10 06:29:04;;;;;;;19.17;17.38;;;;;;;4.22;83.51;93925.31;5076080;28;20185;-69
2021/12/10 06:31:31;;;;;;;21.95;19.75;;;;;;;4.26;83.38;93947.28;5075068;28;20185;-69
2021/12/10 06:33:58;;;;;;;19.35;17.55;;;;;;;4.22;82.96;93933.50;5074178;28;20193;-69
2021/12/10 06:36:27;;;;;;;18.73;17.02;;;;;;;4.26;83.48;93925.44;5075171;28;20220;-68
2021/12/10 06:38:54;;;;;;;18.80;16.95;;;;;;;4.26;83.64;93931.69;5091047;28;20229;-68
2021/12/10 06:41:23;;;;;;;18.15;16.48;;;;;;;4.27;83.37;93925.06;5073806;28;20192;-68
2021/12/10 06:43:51;;;;;;;17.48;15.98;;;;;;;4.34;83.66;93921.78;5091060;28;20273;-68
2021/12/10 06:46:18;;;;;;;16.38;14.88;;;;;;;4.35;83.65;93915.19;5074088;28;20200;-68
2021/12/10 06:48:45;;;;;;;18.15;16.50;;;;;;;4.40;83.24;93920.44;5073948;28;20192;-69
2021/12/10 06:51:14;;;;;;;18.05;16.35;;;;;;;4.41;82.89;93935.66;5090780;28;20204;-68
2021/12/10 06:53:42;;;;;;;17.75;16.15;;;;;;;4.45;83.66;93912.00;5074758;28;20247;-69
2021/12/10 06:56:10;;;;;;;17.13;15.50;;;;;;;4.49;83.54;93918.34;5074252;28;20200;-70
2021/12/10 06:58:39;;;;;;;17.75;16.15;;;;;;;4.52;83.68;93914.16;5074940;28;20197;-68
2021/12/10 07:01:11;;;;;;;17.38;15.77;;;;;;;4.55;83.93;93929.88;5074494;28;20185;-69
2021/12/10 07:03:38;;;;;;;17.08;15.50;;;;;;;4.58;83.48;93937.38;5074166;28;20201;-69
2021/12/10 07:06:06;;;;;;;18.48;16.73;;;;;;;4.58;83.60;93907.34;5074545;28;20501;-69
2021/12/10 07:08:36;;;;;;;23.95;21.75;;;;;;;4.52;83.24;93955.91;5074945;28;20192;-69
2021/12/10 07:11:04;;;;;;;19.65;17.88;;;;;;;4.53;83.06;93923.94;5074591;28;20504;-69
2021/12/10 07:13:33;;;;;;;19.20;17.65;;;;;;;4.57;82.81;93935.75;5090417;28;20186;-68
2021/12/10 07:16:02;;;;;;;23.42;21.35;;;;;;;4.50;82.75;93941.81;5090500;28;20209;-69
2021/12/10 07:18:29;;;;;;;20.92;19.02;;;;;;;4.49;82.50;93945.66;5074609;28;20213;-68
2021/12/10 07:20:56;;;;;;;19.45;17.73;;;;;;;4.54;83.09;93942.72;5074696;28;20205;-68
2021/12/10 07:23:23;;;;;;;19.90;18.08;;;;;;;4.53;83.33;93940.31;5073455;28;20211;-68
2021/12/10 07:25:51;;;;;;;20.23;18.48;;;;;;;4.54;83.63;93942.72;5074522;28;20212;-68
2021/12/10 07:28:17;;;;;;;20.02;18.23;;;;;;;4.55;83.55;93935.31;5078469;28;20195;-70
2021/12/10 07:30:44;;;;;;;22.35;20.45;;;;;;;4.57;82.69;93935.75;5094152;28;20196;-70
2021/12/10 07:33:12;;;;;;;22.08;20.15;;;;;;;4.61;83.50;93933.94;5078348;28;20193;-70
2021/12/10 07:35:39;;;;;;;21.70;19.52;;;;;;;4.70;83.52;93918.22;5078219;28;20200;-70
2021/12/10 07:38:07;;;;;;;18.70;17.10;;;;;;;4.80;83.01;93927.91;5077195;28;20275;-70
2021/12/10 07:40:35;;;;;;;19.27;17.58;;;;;;;4.86;83.28;93928.44;5077945;28;20200;-70
2021/12/10 07:43:02;;;;;;;16.83;15.32;;;;;;;4.92;82.71;93929.81;5078219;28;20182;-70
2021/12/10 07:45:29;;;;;;;18.80;17.10;;;;;;;4.96;82.63;93931.50;5094064;28;20640;-70
2021/12/10 07:47:57;;;;;;;20.10;18.30;;;;;;;4.98;82.97;93936.63;5077066;28;20544;-69
2021/12/10 07:50:29;;;;;;;18.45;16.77;;;;;;;5.03;82.56;93939.13;5078006;28;20185;-69
2021/12/10 07:52:56;;;;;;;17.13;15.52;;;;;;;5.08;83.00;93919.75;5076756;28;20232;-69
2021/12/10 07:55:25;;;;;;;17.63;16.17;;;;;;;5.10;83.10;93922.94;5093878;28;20205;-69
2021/12/10 07:57:52;;;;;;;17.70;16.10;;;;;;;5.13;82.99;93924.97;5093619;28;20223;-69
2021/12/10 08:00:21;;;;;;;23.60;21.40;;;;;;;5.13;83.06;93919.50;5077765;28;20201;-68
2021/12/10 08:02:48;;;;;;;21.95;19.95;;;;;;;5.12;82.33;93928.88;5076480;28;20240;-69
2021/12/10 08:05:17;;;;;;;26.73;24.33;;;;;;;5.11;82.31;93926.47;5077729;28;20185;-69
2021/12/10 08:07:45;;;;;;;29.58;26.88;;;;;;;5.10;82.84;93922.94;5077775;28;20185;-68
2021/12/10 08:10:13;;;;;;;46.28;41.63;;;;;;;5.12;82.89;93931.59;5076719;28;20197;-69
2021/12/10 08:12:40;;;;;;;46.92;42.33;;;;;;;5.20;83.51;93932.59;5077213;28;20204;-69
2021/12/10 08:15:08;;;;;;;58.08;52.47;;;;;;;5.29;83.17;93930.50;5093755;28;20205;-69
2021/12/10 08:17:35;;;;;;;61.65;55.38;;;;;;;5.40;83.01;93934.34;5093205;28;20221;-69
2021/12/10 08:20:03;;;;;;;73.70;66.97;;;;;;;5.47;83.15;93945.47;5076976;28;20196;-69
2021/12/10 08:22:30;;;;;;;95.05;85.70;;;;;;;5.47;83.02;93940.00;5076844;28;20260;-69
2021/12/10 08:24:58;;;;;;;81.75;73.95;;;;;;;5.46;82.38;93946.63;5093186;28;20201;-69
2021/12/10 08:27:25;;;;;;;61.45;55.35;;;;;;;5.44;82.26;93951.63;5076976;28;20178;-69
2021/12/10 08:29:53;;;;;;;48.28;43.72;;;;;;;5.50;82.35;93938.53;5076316;28;20537;-69
2021/12/10 08:32:21;;;;;;;38.85;35.35;;;;;;;5.64;82.67;93936.19;5077121;28;20197;-69
2021/12/10 08:34:49;;;;;;;35.65;32.22;;;;;;;5.72;82.46;93945.38;5076738;28;20526;-70
2021/12/10 08:37:16;;;;;;;34.35;31.35;;;;;;;5.78;82.27;93936.56;5092120;28;20224;-70
2021/12/10 08:39:43;;;;;;;36.97;33.47;;;;;;;5.81;81.61;93935.09;5076686;28;20193;-70
2021/12/10 08:42:13;;;;;;;40.55;36.47;;;;;;;5.80;80.90;93923.31;5075615;28;20208;-69
2021/12/10 08:44:41;;;;;;;40.97;36.72;;;;;;;5.80;81.12;93915.09;5076425;28;20522;-69
2021/12/10 08:47:09;;;;;;;42.35;38.17;;;;;;;5.74;80.41;93927.47;5075969;28;20197;-69
2021/12/10 08:49:36;;;;;;;43.00;38.72;;;;;;;5.76;80.62;93913.44;5076005;28;20224;-69
2021/12/10 08:52:04;;;;;;;46.88;42.10;;;;;;;5.79;80.50;93929.16;5076494;28;20177;-69
2021/12/10 08:54:32;;;;;;;46.60;41.70;;;;;;;5.73;79.83;93931.34;5076803;28;20244;-69
2021/12/10 08:56:59;;;;;;;45.55;41.10;;;;;;;5.71;80.24;93930.13;5076523;28;20303;-68
2021/12/10 08:59:28;;;;;;;46.92;42.22;;;;;;;5.70;80.27;93926.59;5092724;28;20189;-68
2021/12/10 09:01:59;;;;;;;46.35;41.55;;;;;;;5.68;80.14;93937.06;5075220;28;20603;-69
2021/12/10 09:04:28;;;;;;;48.55;43.63;;;;;;;5.64;80.24;93935.38;5076534;28;20200;-71
2021/12/10 09:06:58;;;;;;;50.55;45.63;;;;;;;5.59;80.22;93924.69;5076449;28;20181;-69
2021/12/10 09:09:27;;;;;;;53.60;48.25;;;;;;;5.55;80.44;93927.31;5075599;28;20605;-69
2021/12/10 09:11:56;;;;;;;56.97;51.03;;;;;;;5.54;80.57;93939.41;5075412;28;20229;-70
2021/12/10 09:14:28;;;;;;;52.33;47.20;;;;;;;5.65;80.98;93920.56;5075481;28;20304;-68
2021/12/10 09:16:57;;;;;;;53.58;48.22;;;;;;;5.73;80.51;93927.81;5075375;28;20228;-68
2021/12/10 09:19:24;;;;;;;59.88;53.65;;;;;;;5.74;79.40;93924.75;5076295;28;20185;-69
2021/12/10 09:21:52;;;;;;;59.83;53.65;;;;;;;5.72;79.46;93899.66;5074944;28;20193;-68
2021/12/10 09:24:21;;;;;;;60.38;54.15;;;;;;;5.69;79.34;93907.78;5076079;28;20190;-68
2021/12/10 09:26:52;;;;;;;62.75;56.03;;;;;;;5.62;78.61;93930.25;5076225;28;20191;-68
2021/12/10 09:29:19;;;;;;;60.50;54.20;;;;;;;5.64;79.20;93927.19;5075814;28;20232;-69
2021/12/10 09:31:46;;;;;;;59.92;53.58;;;;;;;5.61;78.79;93931.41;5076195;28;20223;-69
2021/12/10 09:34:16;;;;;;;60.47;54.08;;;;;;;5.67;79.22;93929.22;5076062;28;20239;-69
2021/12/10 09:36:45;;;;;;;61.28;54.85;;;;;;;5.73;78.79;93912.19;5075912;28;20196;-70
2021/12/10 09:39:14;;;;;;;61.78;55.28;;;;;;;5.83;78.43;93882.72;5075689;28;20223;-69
2021/12/10 09:41:41;;;;;;;59.03;52.85;;;;;;;5.87;79.04;93880.88;5075125;28;20193;-69
2021/12/10 09:44:08;;;;;;;56.38;50.30;;;;;;;5.88;78.62;93868.78;5091978;28;20537;-69
2021/12/10 09:46:36;;;;;;;53.92;48.22;;;;;;;5.85;79.20;93867.56;5075453;28;20204;-68
2021/12/10 09:49:03;;;;;;;49.17;44.17;;;;;;;5.87;79.36;93875.41;5074972;28;20185;-69
2021/12/10 09:51:37;;;;;;;46.10;41.60;;;;;;;5.86;79.25;93874.63;5075263;28;20207;-70
2021/12/10 09:54:10;;;;;;;47.22;42.53;;;;;;;5.91;79.29;93879.03;5074632;28;20241;-70
2021/12/10 09:56:38;;;;;;;51.55;46.13;;;;;;;5.87;79.26;93878.94;5075308;28;20533;-69
2021/12/10 09:59:06;;;;;;;48.42;43.42;;;;;;;5.93;79.87;93869.34;5075530;28;20212;-70
2021/12/10 10:01:35;;;;;;;48.08;42.95;;;;;;;6.08;79.47;93867.75;5075575;28;20182;-69
2021/12/10 10:04:03;;;;;;;42.95;38.53;;;;;;;6.17;79.12;93860.19;5075347;28;20211;-69
2021/12/10 10:06:36;;;;;;;41.60;37.30;;;;;;;6.46;80.16;93849.88;5075429;28;20185;-68
2021/12/10 10:09:04;;;;;;;40.63;36.63;;;;;;;6.70;78.99;93833.22;5076195;28;20193;-69
2021/12/10 10:11:34;;;;;;;41.45;37.42;;;;;;;7.05;77.92;93826.13;5091747;28;20189;-69
2021/12/10 10:14:01;;;;;;;44.45;40.00;;;;;;;7.28;76.94;93821.47;5074799;28;20211;-69
2021/12/10 10:16:29;;;;;;;39.35;35.53;;;;;;;7.41;76.00;93831.13;5074977;28;20189;-69
2021/12/10 10:18:57;;;;;;;39.05;35.35;;;;;;;7.45;75.86;93831.22;5075318;28;20205;-69
2021/12/10 10:21:26;;;;;;;44.22;40.00;;;;;;;7.24;75.72;93840.59;5091510;28;20200;-69
2021/12/10 10:23:54;;;;;;;49.30;44.20;;;;;;;7.12;76.52;93826.25;5091100;28;20614;-67
2021/12/10 10:26:25;;;;;;;47.72;42.65;;;;;;;7.20;76.89;93830.72;5091294;28;20205;-70
2021/12/10 10:28:52;;;;;;;44.17;39.88;;;;;;;7.05;77.31;93815.94;5075259;28;20220;-70
2021/12/10 10:31:23;;;;;;;40.05;36.15;;;;;;;7.14;76.79;93824.72;5074311;28;20232;-68
2021/12/10 10:33:54;;;;;;;40.55;36.53;;;;;;;7.27;76.77;93811.66;5074837;28;20712;-69
2021/12/10 10:36:24;;;;;;;39.65;35.65;;;;;;;7.33;76.59;93806.66;5075505;28;20189;-68
2021/12/10 10:38:57;;;;;;;38.53;34.85;;;;;;;7.36;76.60;93803.19;5075557;28;20212;-67
2021/12/10 10:41:27;;;;;;;36.42;32.92;;;;;;;7.48;76.51;93794.81;5091889;28;20192;-67
2021/12/10 10:43:54;;;;;;;32.47;29.13;;;;;;;7.62;76.53;93794.25;5091607;28;20204;-68
2021/12/10 10:46:21;;;;;;;32.47;29.30;;;;;;;7.71;76.65;93803.84;5075208;28;20212;-68
2021/12/10 10:48:49;;;;;;;33.83;30.63;;;;;;;7.74;76.33;93802.34;5090726;28;20602;-69
2021/12/10 10:51:18;;;;;;;39.03;35.10;;;;;;;7.66;75.18;93804.16;5074425;28;20200;-70
2021/12/10 10:53:47;;;;;;;44.05;39.63;;;;;;;7.50;75.00;93803.47;5073891;28;20232;-70
2021/12/10 10:56:18;;;;;;;46.55;42.05;;;;;;;7.45;75.35;93814.75;5076167;28;20590;-69
2021/12/10 10:58:47;;;;;;;42.45;38.40;;;;;;;7.44;75.55;93803.00;5091357;28;20220;-69
2021/12/10 11:01:23;;;;;;;40.78;36.78;;;;;;;7.39;75.81;93797.78;5093439;28;20295;-69
2021/12/10 11:03:53;;;;;;;41.75;37.65;;;;;;;7.37;75.91;93783.66;5094751;28;20295;-69
2021/12/10 11:06:26;;;;;;;37.80;34.20;;;;;;;7.38;76.00;93779.75;5095009;28;20197;-69
2021/12/10 11:08:55;;;;;;;38.63;34.92;;;;;;;7.39;75.98;93784.06;5078033;28;20614;-69
2021/12/10 11:11:26;;;;;;;41.70;37.80;;;;;;;7.36;76.43;93794.97;5078757;28;20256;-69
2021/12/10 11:14:04;;;;;;;39.47;35.67;;;;;;;7.41;76.04;93791.94;5078745;28;20193;-69
2021/12/10 11:16:32;;;;;;;41.05;36.88;;;;;;;7.40;76.28;93787.59;5094761;28;20275;-69
2021/12/10 11:19:04;;;;;;;43.08;38.78;;;;;;;7.26;76.42;93806.53;5078494;28;20205;-69
2021/12/10 11:21:41;;;;;;;44.60;40.28;;;;;;;7.28;76.52;93812.44;5077225;28;20617;-69
2021/12/10 11:24:11;;;;;;;45.90;41.30;;;;;;;7.30;76.94;93802.72;5077442;28;20193;-69
2021/12/10 11:26:49;;;;;;;46.90;42.10;;;;;;;7.37;76.59;93802.84;5094481;28;20199;-69
2021/12/10 11:29:45;;;;;;;49.42;44.47;;;;;;;7.41;76.77;93798.22;5094570;28;20271;-69
2021/12/10 11:32:14;;;;;;;45.85;41.22;;;;;;;7.51;76.75;93794.06;5034055;28;20232;-69
2021/12/10 11:34:49;;;;;;;40.20;36.20;;;;;;;7.63;75.97;93780.19;5081652;28;20208;-69
2021/12/10 11:37:17;;;;;;;40.15;36.42;;;;;;;7.68;76.02;93779.09;5096900;28;20611;-69